Time;durP1;ratioP1;P1;durP2;ratioP2;P2;SDS_P1;SDS_P2;PMS_P1;PMS_P2;Temp;Humidity;BMP_temperature;BMP_pressure;BME280_temperature;BME280_humidity;BME280_pressure;Samples;Min_cycle;Max_cycle;Signal;HPM_P1;HPM_P2
2022/10/18 01:43:04;;;;;;;24.17;16.77;;;9.40;99.90;;;;;;4992433;28;20065;-53
2022/10/18 01:45:31;;;;;;;26.60;16.77;;;9.40;99.90;;;;;;4996134;28;20121;-54
2022/10/18 01:47:58;;;;;;;23.75;15.82;;;9.50;99.90;;;;;;4995975;28;20027;-53
2022/10/18 01:50:32;;;;;;;26.55;16.33;;;9.70;99.90;;;;;;4995915;28;20061;-53
2022/10/18 01:52:59;;;;;;;23.42;16.02;;;9.90;99.90;;;;;;4996049;28;20039;-53
2022/10/18 01:55:34;;;;;;;25.90;16.38;;;9.90;99.90;;;;;;4995754;28;20034;-53
2022/10/18 01:58:09;;;;;;;25.35;17.92;;;9.90;99.90;;;;;;4995722;28;20540;-53
2022/10/18 02:00:43;;;;;;;25.20;16.30;;;10.10;99.90;;;;;;4995549;28;20547;-53
2022/10/18 02:03:22;;;;;;;32.50;16.65;;;10.10;99.90;;;;;;4995612;28;20134;-53
2022/10/18 02:06:05;;;;;;;64.53;38.92;;;9.90;99.90;;;;;;4995382;28;20524;-54
2022/10/18 02:08:41;;;;;;;884.90;809.10;;;9.80;99.90;;;;;;4995685;28;20065;-53
2022/10/18 02:11:11;;;;;;;62.25;37.47;;;9.70;99.90;;;;;;4961121;28;20504;-54
2022/10/18 02:13:52;;;;;;;112.38;57.88;;;9.90;99.90;;;;;;4994894;28;20097;-54
2022/10/18 02:16:41;;;;;;;22.92;14.73;;;10.00;99.90;;;;;;4995251;28;20033;-53
2022/10/18 02:19:14;;;;;;;24.45;14.57;;;10.10;99.90;;;;;;4976645;28;20556;-53
2022/10/18 02:21:42;;;;;;;29.75;15.18;;;10.40;99.90;;;;;;4994803;28;20030;-53
2022/10/18 02:24:11;;;;;;;22.23;15.88;;;10.30;99.90;;;;;;4995503;28;20038;-54
2022/10/18 02:26:37;;;;;;;22.02;15.68;;;10.50;99.90;;;;;;4994992;28;20561;-54
2022/10/18 02:29:03;;;;;;;24.10;16.85;;;10.50;99.90;;;;;;4994965;28;20033;-54
2022/10/18 02:31:47;;;;;;;21.65;16.60;;;10.60;99.90;;;;;;4960745;28;20034;-54
2022/10/18 02:34:34;;;;;;;24.20;15.80;;;10.50;99.90;;;;;;4995347;28;20115;-54
2022/10/18 02:37:01;;;;;;;24.05;16.52;;;10.30;99.90;;;;;;4994963;28;20026;-54
2022/10/18 02:39:35;;;;;;;24.70;18.50;;;10.20;99.90;;;;;;4994993;28;20106;-54
2022/10/18 02:42:06;;;;;;;22.67;15.40;;;10.10;99.90;;;;;;4994447;28;20066;-53
2022/10/18 02:44:33;;;;;;;24.77;16.77;;;9.80;99.90;;;;;;4995040;28;20034;-54
2022/10/18 02:46:59;;;;;;;24.55;16.75;;;9.60;99.90;;;;;;4976511;28;20030;-54
2022/10/18 02:49:25;;;;;;;23.02;17.05;;;9.60;99.90;;;;;;4994272;28;20026;-53
2022/10/18 02:51:51;;;;;;;27.23;17.95;;;9.60;99.90;;;;;;4944203;28;20038;-54
2022/10/18 02:54:17;;;;;;;26.98;18.02;;;9.70;99.90;;;;;;4994726;28;20034;-54
2022/10/18 02:56:42;;;;;;;26.80;18.25;;;9.70;99.90;;;;;;4994654;28;20121;-54
2022/10/18 02:59:08;;;;;;;25.42;16.98;;;9.90;99.90;;;;;;4976448;28;20124;-54
2022/10/18 03:01:35;;;;;;;25.63;18.63;;;10.10;99.90;;;;;;4994471;28;20029;-54
2022/10/18 03:04:01;;;;;;;24.70;17.05;;;10.10;99.90;;;;;;4994131;28;20048;-54
2022/10/18 03:06:27;;;;;;;26.33;17.48;;;10.10;99.90;;;;;;4994478;28;20394;-54
2022/10/18 03:08:53;;;;;;;24.75;18.38;;;9.90;99.90;;;;;;4994161;28;20030;-54
2022/10/18 03:11:19;;;;;;;25.20;18.10;;;9.70;99.90;;;;;;4994570;28;20482;-54
2022/10/18 03:13:45;;;;;;;29.27;19.88;;;9.40;99.90;;;;;;4993908;28;20023;-54
2022/10/18 03:16:12;;;;;;;30.15;19.20;;;9.20;99.90;;;;;;4993955;28;20080;-54
2022/10/18 03:18:37;;;;;;;24.33;18.55;;;9.20;99.90;;;;;;4994336;28;20390;-54
2022/10/18 03:21:07;;;;;;;28.40;19.48;;;9.30;99.90;;;;;;4994129;28;20030;-54
2022/10/18 03:23:33;;;;;;;26.08;19.30;;;9.40;99.90;;;;;;4994236;28;20038;-54
2022/10/18 03:25:59;;;;;;;24.48;18.48;;;9.40;99.90;;;;;;4993904;28;20085;-54
2022/10/18 03:28:25;;;;;;;30.33;20.02;;;9.40;99.90;;;;;;4993984;28;20038;-54
2022/10/18 03:30:50;;;;;;;30.10;19.50;;;9.50;99.90;;;;;;4993975;28;20034;-54
2022/10/18 03:33:16;;;;;;;28.85;20.42;;;9.70;99.90;;;;;;4993863;28;20037;-54
2022/10/18 03:35:42;;;;;;;25.80;19.10;;;9.80;99.90;;;;;;4994342;28;20389;-54
2022/10/18 03:38:08;;;;;;;31.27;20.13;;;10.00;99.90;;;;;;4994277;28;20037;-54
2022/10/18 03:40:34;;;;;;;30.45;19.60;;;10.20;99.90;;;;;;4993943;28;20034;-54
2022/10/18 03:42:59;;;;;;;39.88;19.05;;;10.30;99.90;;;;;;4993469;28;20054;-54
2022/10/18 03:45:25;;;;;;;29.35;18.38;;;10.40;99.90;;;;;;4994040;28;20030;-54
2022/10/18 03:47:51;;;;;;;30.77;19.77;;;10.50;99.90;;;;;;4993764;28;20031;-54
2022/10/18 03:50:17;;;;;;;29.33;19.50;;;10.50;99.90;;;;;;4994102;28;20030;-54
2022/10/18 03:52:43;;;;;;;27.40;18.13;;;10.50;99.90;;;;;;4975773;28;20486;-54
2022/10/18 03:55:09;;;;;;;30.30;18.95;;;10.50;99.90;;;;;;4993643;28;20031;-54
2022/10/18 03:57:34;;;;;;;31.90;22.08;;;10.60;99.90;;;;;;4974385;28;20030;-55
2022/10/18 04:00:00;;;;;;;33.00;23.17;;;10.50;99.90;;;;;;4998355;28;20026;-55
2022/10/18 04:02:26;;;;;;;29.80;20.55;;;10.50;99.90;;;;;;4999588;28;20038;-55
2022/10/18 04:04:52;;;;;;;23.48;16.50;;;10.50;99.90;;;;;;5013253;28;20548;-54
2022/10/18 04:07:17;;;;;;;23.58;15.77;;;10.40;99.90;;;;;;5009402;28;20033;-53
2022/10/18 04:09:43;;;;;;;25.98;18.45;;;10.30;99.90;;;;;;5013412;28;20077;-53
2022/10/18 04:12:09;;;;;;;30.38;19.42;;;10.20;99.90;;;;;;5013093;28;20076;-53
2022/10/18 04:14:35;;;;;;;28.95;18.38;;;10.10;99.90;;;;;;5013400;28;20105;-53
2022/10/18 04:17:00;;;;;;;33.67;17.08;;;10.10;99.90;;;;;;5003171;28;20030;-54
2022/10/18 04:19:26;;;;;;;81.38;53.65;;;10.10;99.90;;;;;;4995708;28;20105;-53
2022/10/18 04:21:52;;;;;;;28.77;17.83;;;10.00;99.90;;;;;;4990512;28;20038;-54
2022/10/18 04:24:18;;;;;;;37.92;25.20;;;10.10;99.90;;;;;;4969152;28;20070;-53
2022/10/18 04:26:44;;;;;;;29.63;20.15;;;10.10;99.90;;;;;;4989039;28;20026;-53
2022/10/18 04:29:10;;;;;;;87.45;52.97;;;9.50;99.90;;;;;;4995866;28;20023;-53
2022/10/18 04:31:36;;;;;;;1121.03;717.53;;;9.10;99.90;;;;;;5009819;28;20030;-53
2022/10/18 04:34:03;;;;;;;279.63;169.18;;;;;;;;;;4996189;28;20053;-53
2022/10/18 04:36:29;;;;;;;35.83;24.98;;;;;;;;;;4995732;28;20116;-53
2022/10/18 04:38:55;;;;;;;30.15;19.30;;;8.30;99.90;;;;;;5013033;28;20026;-53
2022/10/18 04:41:21;;;;;;;23.27;16.27;;;8.10;99.90;;;;;;4997294;28;21101;-53
2022/10/18 04:43:47;;;;;;;25.58;18.02;;;8.20;99.90;;;;;;4996754;28;20053;-53
2022/10/18 04:46:13;;;;;;;19.95;15.50;;;8.20;99.90;;;;;;4997478;28;20377;-53
2022/10/18 04:48:38;;;;;;;22.90;15.88;;;8.30;99.90;;;;;;4946499;28;20114;-53
2022/10/18 04:51:04;;;;;;;23.52;15.77;;;8.40;99.90;;;;;;4996881;28;20030;-54
2022/10/18 04:53:31;;;;;;;24.50;16.63;;;8.80;99.90;;;;;;4997061;28;20054;-53
2022/10/18 04:55:57;;;;;;;32.90;22.40;;;8.90;99.90;;;;;;4996764;28;20041;-53
2022/10/18 04:58:23;;;;;;;24.52;16.20;;;9.20;99.90;;;;;;4997059;28;20027;-53
2022/10/18 05:00:49;;;;;;;25.90;16.58;;;9.50;99.90;;;;;;4960477;28;20445;-53
2022/10/18 05:03:15;;;;;;;29.88;19.20;;;9.60;99.90;;;;;;4996752;28;20031;-53
2022/10/18 05:05:41;;;;;;;38.13;16.70;;;9.70;99.90;;;;;;4996631;28;20030;-53
2022/10/18 05:08:07;;;;;;;45.03;18.45;;;9.80;99.90;;;;;;4996609;28;20109;-54
2022/10/18 05:10:33;;;;;;;33.50;17.20;;;9.80;99.90;;;;;;4946072;28;20125;-53
2022/10/18 05:12:59;;;;;;;24.00;14.65;;;9.90;99.90;;;;;;4962522;28;20433;-53
2022/10/18 05:15:25;;;;;;;20.88;15.15;;;9.50;99.90;;;;;;4996452;28;20031;-53
2022/10/18 05:17:50;;;;;;;25.35;15.75;;;9.30;99.90;;;;;;4962023;28;20042;-53
2022/10/18 05:20:16;;;;;;;30.38;16.00;;;9.50;99.90;;;;;;4996249;28;20091;-53
2022/10/18 05:22:42;;;;;;;35.35;18.20;;;9.60;99.90;;;;;;4996445;28;20037;-53
2022/10/18 05:25:08;;;;;;;28.50;16.00;;;9.60;99.90;;;;;;4996385;28;20454;-52
2022/10/18 05:27:34;;;;;;;25.70;15.27;;;9.70;99.90;;;;;;4996781;28;20412;-52
2022/10/18 05:30:00;;;;;;;19.30;14.77;;;9.80;99.90;;;;;;4996621;28;20037;-52
2022/10/18 05:32:25;;;;;;;29.63;14.85;;;9.70;99.90;;;;;;4995936;28;20026;-49
2022/10/18 05:34:51;;;;;;;29.98;16.33;;;9.80;99.90;;;;;;4959750;28;20035;-51
2022/10/18 05:37:17;;;;;;;34.00;17.02;;;10.70;99.90;;;;;;4995604;28;20030;-51
2022/10/18 05:39:43;;;;;;;38.72;19.25;;;12.60;99.90;;;;;;4991661;28;20038;-51
2022/10/18 05:42:09;;;;;;;29.77;17.30;;;14.50;99.90;;;;;;4994657;28;20537;-51
2022/10/18 05:44:35;;;;;;;34.72;16.98;;;16.30;99.90;;;;;;4998062;28;20472;-52
2022/10/18 05:47:00;;;;;;;28.77;15.88;;;18.00;99.90;;;;;;5015471;28;20037;-51
2022/10/18 05:49:27;;;;;;;32.50;15.68;;;;;;;;;;4981023;28;20129;-51
2022/10/18 05:51:53;;;;;;;27.48;16.05;;;;;;;;;;4981236;28;20037;-51
2022/10/18 05:54:19;;;;;;;29.58;14.65;;;;;;;;;;5015267;28;20053;-51
2022/10/18 05:56:45;;;;;;;19.45;13.82;;;22.20;99.90;;;;;;5015652;28;20042;-51
2022/10/18 05:59:12;;;;;;;19.05;13.32;;;;;;;;;;5015782;28;20036;-51
2022/10/18 06:01:39;;;;;;;18.55;12.82;;;;;;;;;;5015600;28;20030;-51
2022/10/18 06:04:04;;;;;;;21.40;13.63;;;24.10;99.90;;;;;;5015223;28;20481;-52
2022/10/18 06:06:31;;;;;;;20.98;14.15;;;;;;;;;;5015098;28;20033;-51
2022/10/18 06:08:57;;;;;;;25.90;15.60;;;;;;;;;;5015351;28;20030;-51
2022/10/18 06:11:24;;;;;;;25.20;17.40;;;;;;;;;;5014949;28;20064;-51
2022/10/18 06:13:51;;;;;;;32.95;20.58;;;25.90;91.90;;;;;;4981049;28;20042;-51
2022/10/18 06:16:18;;;;;;;32.42;20.92;;;;;;;;;;4980877;28;20030;-49
2022/10/18 06:18:47;;;;;;;35.50;20.20;;;;;;;;;;4980792;28;20112;-49
2022/10/18 06:21:13;;;;;;;38.90;21.02;;;27.10;89.00;;;;;;5015312;28;20034;-49
2022/10/18 06:23:39;;;;;;;31.10;21.10;;;;;;;;;;5014714;28;20049;-49
2022/10/18 06:26:06;;;;;;;27.77;19.75;;;;;;;;;;5014731;28;20025;-49
2022/10/18 06:28:34;;;;;;;25.63;19.42;;;28.30;99.60;;;;;;5014708;28;20427;-49
2022/10/18 06:31:00;;;;;;;28.13;19.33;;;;;;;;;;5015029;28;20049;-50
2022/10/18 06:33:26;;;;;;;27.50;20.13;;;;;;;;;;5014833;28;20022;-50
2022/10/18 06:35:57;;;;;;;27.73;16.75;;;28.90;99.90;;;;;;5014837;28;20033;-50
2022/10/18 06:38:23;;;;;;;22.73;15.63;;;28.20;82.80;;;;;;4980273;28;20042;-51
2022/10/18 06:40:50;;;;;;;24.48;15.55;;;;;;;;;;5014774;28;20545;-49
2022/10/18 06:43:16;;;;;;;22.88;16.30;;;;;;;;;;5014303;28;20069;-53
2022/10/18 06:45:42;;;;;;;20.13;16.00;;;;;;;;;;5014406;28;20355;-54
2022/10/18 06:48:08;;;;;;;22.15;15.45;;;;;;;;;;5013738;28;20026;-53
2022/10/18 06:50:34;;;;;;;21.13;15.65;;;;;;;;;;5014534;28;20030;-54
2022/10/18 06:53:01;;;;;;;21.20;16.15;;;28.00;99.90;;;;;;5014824;28;20176;-51
2022/10/18 06:55:27;;;;;;;23.75;16.58;;;27.90;82.00;;;;;;4973046;28;20547;-51
2022/10/18 06:57:52;;;;;;;20.02;15.15;;;28.60;82.20;;;;;;4973176;28;20125;-54
2022/10/18 07:00:18;;;;;;;21.30;15.10;;;28.80;81.00;;;;;;4973117;28;20403;-53
2022/10/18 07:02:44;;;;;;;21.58;16.27;;;;;;;;;;4972919;28;20113;-53
2022/10/18 07:05:11;;;;;;;20.50;15.90;;;;;;;;;;4973122;28;20069;-54
2022/10/18 07:07:37;;;;;;;25.48;15.82;;;;;;;;;;4972919;28;20106;-53
2022/10/18 07:10:03;;;;;;;22.48;15.38;;;;;;;;;;4972974;28;20050;-53
2022/10/18 07:12:30;;;;;;;19.05;15.27;;;30.90;91.70;;;;;;4972815;28;20122;-53
2022/10/18 07:14:56;;;;;;;21.85;15.82;;;;;;;;;;4972946;28;20043;-52
2022/10/18 07:17:22;;;;;;;19.80;15.02;;;31.50;77.10;;;;;;4972951;28;20034;-53
2022/10/18 07:19:48;;;;;;;19.05;13.80;;;;;;;;;;4972764;28;20109;-53
2022/10/18 07:22:14;;;;;;;19.35;14.30;;;;;;;;;;4972605;28;20034;-52
2022/10/18 07:24:40;;;;;;;17.85;13.70;;;;;;;;;;4972722;28;20031;-53
2022/10/18 07:27:06;;;;;;;17.38;15.30;;;32.40;75.90;;;;;;4991863;28;20049;-53
2022/10/18 07:29:33;;;;;;;16.48;14.55;;;;;;;;;;5013730;28;20385;-52
2022/10/18 07:31:59;;;;;;;19.30;14.38;;;;;;;;;;5013944;28;20033;-54
2022/10/18 07:34:27;;;;;;;20.95;14.98;;;;;;;;;;5013661;28;20028;-54
2022/10/18 07:36:53;;;;;;;16.45;13.27;;;31.90;88.10;;;;;;5013734;28;20030;-53
2022/10/18 07:39:19;;;;;;;16.83;13.13;;;32.20;74.50;;;;;;5013963;28;20033;-52
2022/10/18 07:41:45;;;;;;;18.60;12.75;;;31.40;74.00;;;;;;5013528;28;20133;-53
2022/10/18 07:44:10;;;;;;;17.55;13.38;;;30.70;74.90;;;;;;5013547;28;20026;-54
2022/10/18 07:46:36;;;;;;;14.07;12.18;;;;;;;;;;5013514;28;20037;-51
2022/10/18 07:49:02;;;;;;;15.20;12.48;;;31.40;74.10;;;;;;5013716;28;20030;-52
2022/10/18 07:51:31;;;;;;;17.13;12.90;;;31.00;74.80;;;;;;5013441;28;20101;-54
2022/10/18 07:54:00;;;;;;;17.63;13.25;;;30.70;74.60;;;;;;4980302;28;20076;-53
2022/10/18 07:56:26;;;;;;;16.52;14.63;;;;;;;;;;5013522;28;20058;-53
2022/10/18 07:58:54;;;;;;;18.95;14.57;;;29.20;88.70;;;;;;5014835;28;20025;-51
2022/10/18 08:01:22;;;;;;;24.27;19.95;;;29.20;75.70;;;;;;4999852;28;20393;-53
2022/10/18 08:03:48;;;;;;;21.45;16.88;;;;;;;;;;4983140;28;20037;-52
2022/10/18 08:06:16;;;;;;;22.27;15.45;;;;;;;;;;4982809;28;20033;-52
2022/10/18 08:08:43;;;;;;;17.88;15.55;;;30.60;76.50;;;;;;5017381;28;20108;-54
2022/10/18 08:11:13;;;;;;;20.08;14.85;;;29.30;78.00;;;;;;5017491;28;20030;-51
2022/10/18 08:13:39;;;;;;;17.70;14.65;;;30.30;75.90;;;;;;5017003;28;20026;-54
2022/10/18 08:16:12;;;;;;;18.55;13.82;;;28.90;75.60;;;;;;5017102;28;20026;-54
2022/10/18 08:18:38;;;;;;;18.10;13.60;;;29.10;76.00;;;;;;4966571;28;20034;-52
2022/10/18 08:21:06;;;;;;;14.90;13.15;;;;;;;;;;5017035;28;20037;-55
2022/10/18 08:23:32;;;;;;;16.92;13.40;;;30.40;75.30;;;;;;4982611;28;20046;-56
2022/10/18 08:26:05;;;;;;;14.98;13.32;;;;;;;;;;5017081;28;20037;-54
2022/10/18 08:28:30;;;;;;;14.13;12.57;;;31.20;88.70;;;;;;5017208;28;20101;-54
2022/10/18 08:30:56;;;;;;;14.88;11.85;;;;;;;;;;5016150;28;20518;-55
2022/10/18 08:33:22;;;;;;;12.27;10.90;;;30.90;73.30;;;;;;4982348;28;20044;-55
2022/10/18 08:35:55;;;;;;;13.00;11.63;;;;;;;;;;5016720;28;20022;-53
2022/10/18 08:38:21;;;;;;;29.25;23.98;;;31.40;86.80;;;;;;5016684;28;20104;-54
2022/10/18 08:40:47;;;;;;;27.10;22.35;;;;;;;;;;5016705;28;20057;-55
2022/10/18 08:43:25;;;;;;;23.52;20.05;;;32.70;73.30;;;;;;5016365;28;20068;-52
2022/10/18 08:45:53;;;;;;;20.70;17.17;;;31.40;73.40;;;;;;5016443;28;20022;-52
2022/10/18 08:48:51;;;;;;;19.27;16.23;;;31.70;73.80;;;;;;5016659;28;20029;-52
2022/10/18 08:51:37;;;;;;;21.23;18.10;;;32.00;73.10;;;;;;5016553;28;20426;-51
2022/10/18 08:54:03;;;;;;;17.48;15.07;;;32.00;73.00;;;;;;5016534;28;20022;-50
2022/10/18 08:56:29;;;;;;;16.83;13.77;;;32.10;73.50;;;;;;5016715;28;20029;-51
2022/10/18 08:58:55;;;;;;;16.25;14.55;;;32.20;73.40;;;;;;5016438;28;20036;-50
2022/10/18 09:01:40;;;;;;;17.08;15.23;;;32.40;72.50;;;;;;4982044;28;20033;-49
2022/10/18 09:04:24;;;;;;;16.48;14.70;;;32.20;72.60;;;;;;5016448;28;20037;-49
2022/10/18 09:07:31;;;;;;;18.20;14.25;;;30.90;72.20;;;;;;5016310;28;20025;-51
2022/10/18 09:09:57;;;;;;;17.60;13.95;;;30.60;73.90;;;;;;4981235;28;20045;-51
2022/10/18 09:12:46;;;;;;;17.75;14.00;;;31.00;73.90;;;;;;4974774;28;20045;-49
2022/10/18 09:15:26;;;;;;;17.20;13.57;;;31.80;73.30;;;;;;4901791;29;20079;-51
2022/10/18 09:18:05;;;;;;;16.35;14.75;;;31.50;73.50;;;;;;4917353;29;20051;-49
2022/10/18 09:20:55;;;;;;;15.05;13.65;;;31.80;72.90;;;;;;4917622;29;20043;-50
2022/10/18 09:23:31;;;;;;;17.60;13.10;;;32.10;72.60;;;;;;4917267;29;20043;-51
2022/10/18 09:26:12;;;;;;;19.42;13.55;;;32.20;72.30;;;;;;4917338;29;20040;-51
2022/10/18 09:28:43;;;;;;;13.27;11.98;;;32.40;72.30;;;;;;4901412;29;20036;-49
2022/10/18 09:31:37;;;;;;;17.92;12.07;;;32.60;71.90;;;;;;4917403;29;20036;-49
2022/10/18 09:34:24;;;;;;;14.45;10.85;;;32.10;72.60;;;;;;4917124;29;20100;-50
2022/10/18 09:36:51;;;;;;;16.88;11.35;;;32.20;72.20;;;;;;4916960;29;20063;-51
2022/10/18 09:39:31;;;;;;;15.35;10.27;;;31.70;70.90;;;;;;4917019;29;20123;-49
2022/10/18 09:42:04;;;;;;;12.23;10.95;;;32.10;72.00;;;;;;4916668;29;20082;-51
2022/10/18 09:44:38;;;;;;;70.70;64.80;;;31.40;73.80;;;;;;4902561;29;20057;-51
2022/10/18 09:47:17;;;;;;;12.57;11.27;;;31.50;72.00;;;;;;4920383;29;20040;-51
2022/10/18 09:49:49;;;;;;;12.23;10.98;;;32.30;72.50;;;;;;4935910;29;20040;-50
2022/10/18 09:52:19;;;;;;;16.10;11.00;;;;;;;;;;4945611;29;20047;-50
2022/10/18 09:55:00;;;;;;;16.20;10.32;;;31.20;71.20;;;;;;4954697;29;20538;-50
2022/10/18 09:57:37;;;;;;;13.03;9.17;;;31.70;72.60;;;;;;4954832;29;20035;-50
2022/10/18 10:00:12;;;;;;;13.38;9.98;;;31.50;72.40;;;;;;4925726;29;20285;-50
2022/10/18 10:02:38;;;;;;;12.50;10.43;;;31.70;71.50;;;;;;4931082;29;20051;-50
2022/10/18 10:05:10;;;;;;;12.68;11.38;;;32.10;71.70;;;;;;4911997;29;20062;-51
2022/10/18 10:07:42;;;;;;;17.60;12.00;;;31.20;71.90;;;;;;4920424;29;20115;-50
2022/10/18 10:10:24;;;;;;;15.10;11.85;;;32.00;77.00;;;;;;4935319;29;20050;-51
2022/10/18 10:13:14;;;;;;;11.50;10.27;;;31.90;71.30;;;;;;4935399;29;20035;-50
2022/10/18 10:15:54;;;;;;;10.38;9.32;;;31.80;71.30;;;;;;4957623;28;20038;-50
2022/10/18 10:18:24;;;;;;;9.88;8.18;;;31.90;70.90;;;;;;4974187;28;20110;-50
2022/10/18 10:20:55;;;;;;;11.52;8.32;;;32.10;70.50;;;;;;4973800;28;20046;-50
2022/10/18 10:23:27;;;;;;;14.43;10.13;;;;;;;;;;4940762;28;20054;-51
2022/10/18 10:25:57;;;;;;;17.73;12.93;;;;;;;;;;4973660;28;20043;-49
2022/10/18 10:28:29;;;;;;;14.45;12.13;;;31.60;98.30;;;;;;4973824;28;20038;-50
2022/10/18 10:31:15;;;;;;;17.83;12.23;;;;;;;;;;4973580;28;20038;-51
2022/10/18 10:33:45;;;;;;;11.68;9.88;;;32.30;70.60;;;;;;4973908;28;20082;-51
2022/10/18 10:36:19;;;;;;;21.80;10.75;;;32.50;70.40;;;;;;4954704;28;20611;-50
2022/10/18 10:39:00;;;;;;;14.23;10.80;;;32.40;69.80;;;;;;4973522;28;20031;-50
2022/10/18 10:41:26;;;;;;;14.35;11.05;;;32.50;70.70;;;;;;4977761;28;20058;-51
2022/10/18 10:43:52;;;;;;;13.77;10.55;;;32.70;70.90;;;;;;4994632;28;20034;-51
2022/10/18 10:46:19;;;;;;;12.00;9.30;;;32.00;71.10;;;;;;4995014;28;20037;-52
2022/10/18 10:48:45;;;;;;;13.82;9.73;;;32.00;71.10;;;;;;4995105;28;20542;-51
2022/10/18 10:51:12;;;;;;;12.77;10.02;;;32.20;71.90;;;;;;4994521;28;20030;-51
2022/10/18 10:53:50;;;;;;;16.90;11.48;;;32.50;71.10;;;;;;4995217;28;20038;-51
2022/10/18 10:56:31;;;;;;;17.25;13.80;;;32.70;70.90;;;;;;4994990;28;20077;-51
2022/10/18 10:59:26;;;;;;;16.25;12.40;;;31.70;70.60;;;;;;4994605;28;20026;-51
2022/10/18 11:02:11;;;;;;;10.48;9.38;;;;;;;;;;4989833;28;20505;-51
2022/10/18 11:04:37;;;;;;;11.52;8.40;;;;;;;;;;4994712;28;20034;-51
2022/10/18 11:07:22;;;;;;;9.15;7.07;;;;;;;;;;4994990;28;20030;-51
2022/10/18 11:09:53;;;;;;;10.52;7.63;;;;;;;;;;4995013;28;20536;-51
2022/10/18 11:12:22;;;;;;;10.73;8.75;;;;;;;;;;4994401;28;20093;-51
2022/10/18 11:15:09;;;;;;;9.77;8.05;;;;;;;;;;4994306;28;20112;-51
2022/10/18 11:17:56;;;;;;;18.20;10.93;;;32.10;98.30;;;;;;4994614;28;20081;-51
2022/10/18 11:20:26;;;;;;;13.07;9.23;;;;;;;;;;4994447;28;20026;-51
2022/10/18 11:22:54;;;;;;;17.38;8.68;;;32.40;93.80;;;;;;4994002;28;20037;-51
2022/10/18 11:25:23;;;;;;;10.75;7.82;;;31.30;72.70;;;;;;4994595;28;20030;-51
2022/10/18 11:31:31;;;;;;;10.15;6.88;;;30.40;71.30;;;;;;4978229;28;20042;-51
2022/10/18 11:41:01;;;;;;;8.32;6.25;;;31.10;72.20;;;;;;4959171;28;20090;-51
2022/10/18 11:47:17;;;;;;;8.52;5.78;;;29.90;96.00;;;;;;4960513;28;20505;-51
2022/10/18 11:49:43;;;;;;;8.68;6.53;;;30.10;71.30;;;;;;4965080;28;20086;-51
2022/10/18 11:52:12;;;;;;;8.25;5.45;;;;;;;;;;4959473;28;20031;-52
2022/10/18 12:04:01;;;;;;;9.15;5.10;;;29.70;80.40;;;;;;4948816;28;20564;-51
2022/10/18 12:27:11;;;;;;;11.40;5.82;;;;;;;;;;4965200;28;20046;-53
2022/10/18 12:34:02;;;;;;;7.88;5.75;;;29.10;72.60;;;;;;4958467;28;20583;-51
2022/10/18 12:40:53;;;;;;;8.15;5.97;;;28.20;72.00;;;;;;4905425;29;20457;-50
2022/10/18 12:43:38;;;;;;;10.35;5.68;;;27.80;72.60;;;;;;4886124;29;20052;-50
2022/10/18 13:04:49;;;;;;;8.10;6.40;;;28.20;73.30;;;;;;4867980;29;20052;-51
2022/10/18 13:11:45;;;;;;;11.10;6.22;;;28.40;73.50;;;;;;4868820;29;20060;-51
2022/10/18 13:37:29;;;;;;;10.15;5.82;;;27.80;83.70;;;;;;4962254;28;20123;-51
2022/10/18 13:40:23;;;;;;;14.43;5.57;;;28.10;73.90;;;;;;4951566;28;20082;-48
2022/10/18 13:42:49;;;;;;;9.10;5.25;;;28.40;79.50;;;;;;4902363;29;20583;-52
2022/10/18 13:45:32;;;;;;;8.43;4.85;;;28.20;76.00;;;;;;4910902;29;20036;-49
2022/10/18 13:48:26;;;;;;;8.38;4.60;;;28.40;74.20;;;;;;4924302;29;20080;-53
2022/10/18 13:51:02;;;;;;;9.35;5.47;;;27.90;78.60;;;;;;4921238;29;20046;-50
2022/10/18 13:53:38;;;;;;;7.43;5.03;;;27.40;72.30;;;;;;4904731;29;20531;-49
2022/10/18 13:56:24;;;;;;;7.50;4.60;;;27.30;73.40;;;;;;4917520;29;20415;-48
2022/10/18 13:59:19;;;;;;;6.68;5.20;;;27.50;72.10;;;;;;4917106;29;20189;-51
2022/10/18 14:01:45;;;;;;;6.90;4.95;;;27.50;72.20;;;;;;4880314;29;20059;-49
2022/10/18 14:04:45;;;;;;;8.05;5.13;;;27.80;73.20;;;;;;4896663;29;20048;-51
2022/10/18 14:07:14;;;;;;;8.80;5.07;;;27.90;71.90;;;;;;4858616;29;20034;-51
2022/10/18 14:09:52;;;;;;;8.73;5.15;;;27.40;71.70;;;;;;4855568;29;20124;-49
2022/10/18 14:12:53;;;;;;;10.05;4.65;;;27.50;72.70;;;;;;4858205;29;20585;-49
2022/10/18 14:15:35;;;;;;;9.50;5.07;;;27.90;71.60;;;;;;4872466;29;20044;-51
2022/10/18 14:18:06;;;;;;;7.65;4.72;;;28.10;71.60;;;;;;4874203;29;20086;-49
2022/10/18 14:20:40;;;;;;;10.60;5.00;;;27.80;71.20;;;;;;4876688;29;20036;-50
2022/10/18 14:23:18;;;;;;;9.18;4.63;;;27.70;71.40;;;;;;4873822;29;20167;-51
2022/10/18 14:25:44;;;;;;;6.68;5.00;;;27.60;71.50;;;;;;4876122;29;20513;-50
2022/10/18 14:28:20;;;;;;;7.18;5.00;;;27.90;71.40;;;;;;4873966;29;20037;-49
2022/10/18 14:31:05;;;;;;;12.30;5.40;;;27.70;72.40;;;;;;4823313;29;20133;-50
2022/10/18 14:33:33;;;;;;;12.02;5.88;;;27.50;73.70;;;;;;4873935;29;20469;-51
2022/10/18 14:36:19;;;;;;;9.00;5.28;;;27.40;72.70;;;;;;4874327;29;20064;-48
2022/10/18 14:38:57;;;;;;;7.50;4.88;;;27.00;72.10;;;;;;4965430;28;20046;-50
2022/10/18 14:41:28;;;;;;;12.00;5.32;;;27.10;73.30;;;;;;4977222;28;20049;-52
2022/10/18 14:44:13;;;;;;;12.82;5.28;;;27.00;74.60;;;;;;4985037;28;20049;-50
2022/10/18 14:46:44;;;;;;;9.45;5.30;;;27.20;72.80;;;;;;4985866;28;20034;-49
2022/10/18 14:49:11;;;;;;;21.25;7.10;;;27.20;73.90;;;;;;4986474;28;20031;-52
2022/10/18 14:51:39;;;;;;;16.35;6.07;;;27.10;73.90;;;;;;4981183;28;20081;-51
2022/10/18 14:54:07;;;;;;;11.20;5.40;;;27.00;74.80;;;;;;4991093;28;20034;-51
2022/10/18 14:56:38;;;;;;;9.80;5.38;;;26.80;73.30;;;;;;4985259;28;20030;-49
2022/10/18 14:59:28;;;;;;;8.68;5.38;;;26.60;74.40;;;;;;4983909;28;20042;-51
2022/10/18 15:01:56;;;;;;;19.35;9.48;;;26.50;75.10;;;;;;4944877;28;20046;-50
2022/10/18 15:04:23;;;;;;;20.83;10.63;;;26.30;76.20;;;;;;4985716;28;20474;-52
2022/10/18 15:06:49;;;;;;;14.35;8.63;;;25.90;77.20;;;;;;4985039;28;20047;-52
2022/10/18 15:09:20;;;;;;;16.15;7.07;;;25.90;77.00;;;;;;4989711;28;20089;-51
2022/10/18 15:11:47;;;;;;;13.55;9.45;;;25.80;77.60;;;;;;4952360;29;20454;-50
2022/10/18 15:14:17;;;;;;;15.57;10.00;;;25.60;77.90;;;;;;4952969;29;20055;-50
2022/10/18 15:16:43;;;;;;;16.75;10.90;;;25.60;78.90;;;;;;4952380;29;20043;-51
2022/10/18 15:19:15;;;;;;;23.45;12.98;;;25.30;79.40;;;;;;4952540;29;20023;-49
2022/10/18 15:21:57;;;;;;;;;;;25.30;78.50;;;;;;4953059;29;20492;-50
2022/10/18 15:24:26;;;;;;;22.15;11.57;;;25.20;78.60;;;;;;4952999;29;19929;-48
2022/10/18 15:26:59;;;;;;;22.38;11.32;;;25.00;79.80;;;;;;4952350;29;20129;-50
2022/10/18 15:29:25;;;;;;;26.90;12.68;;;24.80;79.50;;;;;;4936184;29;20042;-50
2022/10/18 15:31:51;;;;;;;18.85;10.38;;;24.80;79.70;;;;;;4951987;29;20094;-49
2022/10/18 15:34:25;;;;;;;19.02;9.30;;;24.50;80.80;;;;;;4952514;29;20383;-51
2022/10/18 15:36:53;;;;;;;29.25;10.73;;;24.30;80.90;;;;;;4945391;29;20059;-51
2022/10/18 15:39:22;;;;;;;17.30;9.77;;;23.90;82.40;;;;;;4933601;29;20034;-49
2022/10/18 15:41:49;;;;;;;22.15;10.07;;;23.70;81.80;;;;;;4937379;28;20443;-49
2022/10/18 15:44:23;;;;;;;22.90;9.65;;;23.40;83.00;;;;;;4971267;28;20094;-51
2022/10/18 15:46:51;;;;;;;25.58;12.98;;;23.20;82.80;;;;;;4959018;28;20394;-53
2022/10/18 15:49:23;;;;;;;19.20;9.95;;;23.00;82.30;;;;;;4970343;28;20158;-51
2022/10/18 15:52:14;;;;;;;28.45;10.30;;;22.80;83.10;;;;;;4965611;28;20035;-50
2022/10/18 15:54:41;;;;;;;21.63;11.10;;;22.60;83.20;;;;;;4969661;28;20125;-51
2022/10/18 15:57:11;;;;;;;20.83;10.55;;;22.40;83.40;;;;;;4968798;28;20034;-51
2022/10/18 15:59:48;;;;;;;44.25;15.30;;;22.10;83.50;;;;;;4972717;28;20031;-49
2022/10/18 16:02:14;;;;;;;44.65;15.80;;;;;;;;;;4973072;28;20035;-49
2022/10/18 16:04:40;;;;;;;41.40;15.35;;;21.90;93.80;;;;;;4949350;28;20046;-50
2022/10/18 16:07:08;;;;;;;40.45;14.15;;;21.70;86.00;;;;;;4966865;28;20042;-52
2022/10/18 16:09:33;;;;;;;44.97;14.18;;;21.60;86.30;;;;;;4970777;28;20039;-49
2022/10/18 16:11:59;;;;;;;462.00;235.65;;;21.40;86.40;;;;;;4966630;28;20039;-51
2022/10/18 16:14:25;;;;;;;380.77;193.80;;;21.40;87.00;;;;;;4952606;28;20062;-51
2022/10/18 16:16:58;;;;;;;469.60;262.40;;;21.20;90.40;;;;;;4970908;28;20031;-52
2022/10/18 16:19:23;;;;;;;681.63;440.45;;;21.10;87.60;;;;;;4969854;28;20550;-51
2022/10/18 16:21:51;;;;;;;570.40;399.75;;;21.00;88.20;;;;;;4972221;28;20027;-50
2022/10/18 16:24:17;;;;;;;526.10;379.17;;;20.90;88.50;;;;;;4969115;28;20043;-48
2022/10/18 16:26:43;;;;;;;573.85;370.80;;;20.80;87.60;;;;;;4968973;28;20041;-51